Welcome to our new website - Welkom op onze vernieuwde website - Bienvenue sur notre nouveau site web - Willkommen auf unserer neuen Website
Check our progress frequently. Prüfen Sie unsere Fortschritte regelmäßig. Consultez notre progression fréquemment. Komt u straks nog eens terug


Hej. Vi har købt ny vejrstation, og er ved at bygge en helt ny vejrside.
Kom snart tilbage og følg udviklingen.
Du kan også komme med kommentarer eller evt. ønsker via "Kontakt" i bunden.



Webcam more information Webcam


Rain radar more information rain snow radar


Visit our other weather sites:

Template documentation
and downloads

And another site



Select another period ( hide this area )

Units Period Custom range Directly to
Metric English Both
Daily Weekly Monthly Yearly
use both date-selectors for a custom range
previous Day
With this date

WeatherUnderground graphs for this period ( click here )


Daily Summary for Thursday 18 July 2019
Time Temp. ( °C ) Dew pt. ( °C ) Wind ( km/h ) from Gust ( km/h ) Pressure ( hPa ) Humid.( % ) Rainrate ( cm ) Solar ( W/m2 )
High24,8 16,2 24,1 SE ( 177/862 ) 25,7 1014,8 91 - 840
Average18,2 11,9 4,0 North #56/218 8,3 1014,0 69 - 474 #163/218
Low10,4 8,8 -   0,0 1013,1 46 -  
Daily Tabular details for Thursday 18 July 2019
Time Temp. ( °C ) Dew pt. ( °C ) Wind ( km/h ) from Gust ( km/h ) Pressure ( hPa ) Humid.( % ) Rainrate ( cm ) Solar ( W/m2 )
00:04 13,5 11,0 1,4 NNW 4,8 1014,8 85 - -
00:09 13,4 10,9 1,4 NNW 3,2 1014,8 85 - -
00:14 13,3 10,8 3,2 NNW 4,8 1014,8 85 - -
00:19 13,2 10,9 3,2 NNW 3,2 1014,8 86 - -
00:24 13,1 10,8 1,4 North 4,8 1014,8 86 - -
00:29 13,1 11,0 1,4 North 4,8 1014,8 87 - -
00:34 13,0 10,9 3,2 North 3,2 1014,8 87 - -
00:39 13,0 10,9 4,7 North 4,8 1014,8 87 - -
00:44 13,0 10,9 3,2 North 4,8 1014,8 87 - -
00:49 12,9 10,8 3,2 North 4,8 1014,8 87 - -
00:54 12,9 10,8 6,4 North 6,4 1014,8 87 - -
00:59 12,9 11,0 4,7 North 6,4 1014,8 88 - -
01:04 12,9 11,0 3,2 North 4,8 1014,8 88 - -
01:09 12,9 11,0 1,4 North 4,8 1014,8 88 - -
01:14 12,8 10,9 3,2 North 4,8 1014,8 88 - -
01:19 12,8 10,9 3,2 NNW 4,8 1014,4 88 - -
01:24 12,7 10,8 1,4 North 3,2 1014,8 88 - -
01:29 12,6 10,8 1,4 North 3,2 1014,8 89 - -
01:34 12,6 10,8 1,4 NW 1,6 1014,8 89 - -
01:39 12,5 10,7 1,4 North 3,2 1014,8 89 - -
01:44 12,4 10,6 3,2 NW 3,2 1014,8 89 - -
01:49 12,3 10,5 1,4 NW 3,2 1014,4 89 - -
01:54 12,2 10,4   Calm   1014,4 89 - -
01:59 12,3 10,7   Calm   1014,4 90 - -
02:04 12,1 10,3   Calm   1014,4 89 - -
02:09 12,1 10,5   Calm 1,6 1014,4 90 - -
02:14 12,1 10,5   Calm   1014,4 90 - -
02:19 11,8 10,0   Calm   1014,4 89 - -
02:24 11,7 9,9   Calm   1014,4 89 - -
02:29 11,7 9,9   Calm   1014,4 89 - -
02:34 11,7 9,9 1,4 North 3,2 1014,4 89 - -
02:39 11,6 9,8 1,4 North 3,2 1014,4 89 - -
02:44 11,6 10,0 1,4 North 1,6 1014,4 90 - -
02:49 11,7 10,1 3,2 North 3,2 1014,4 90 - -
02:54 11,5 9,7 1,4 North 3,2 1014,4 89 - -
02:59 11,4 9,7   Calm 3,2 1014,4 89 - -
03:04 11,4 9,7 1,4 North 4,8 1014,4 89 - -
03:09 11,3 9,6 3,2 North 3,2 1014,4 89 - -
03:14 11,3 9,6 1,4 North 3,2 1014,4 89 - -
03:19 11,2 9,5 3,2 North 4,8 1014,1 89 - -
03:24 11,2 9,5 1,4 North 4,8 1014,1 89 - -
03:29 11,1 9,4 3,2 North 3,2 1014,1 89 - -
03:34 11,0 9,3 1,4 North 1,6 1014,1 89 - -
03:39 10,9 9,3   Calm   1014,1 90 - -
03:44 10,8 9,2   Calm   1014,1 90 - -
03:49 10,8 9,2   Calm 1,6 1014,1 90 - -
03:54 10,7 9,1 1,4 North 1,6 1014,1 90 - -
03:59 10,7 9,1 3,2 North 3,2 1014,1 90 - -
04:04 10,6 9,0 1,4 North 1,6 1014,1 90 - -
04:09 10,6 9,0 1,4 North 3,2 1014,1 90 - -
04:14 10,5 8,8 1,4 North 3,2 1014,1 89 - -
04:19 10,6 8,9 1,4 North 3,2 1014,1 89 - -
04:24 10,6 8,9   Calm 1,6 1014,1 89 - -
04:29 10,7 9,1 1,4 North 3,2 1014,1 90 - -
04:34 10,7 9,0 3,2 North 4,8 1014,1 89 - -
04:39 10,7 9,1 1,4 North 4,8 1014,1 90 - 5
04:44 10,7 9,1 1,4 North 3,2 1014,1 90 - 5
04:49 10,6 9,0 1,4 North 3,2 1014,1 90 - 7
04:54 10,6 9,0 1,4 North 3,2 1014,1 90 - 9
04:59 10,6 9,0 1,4 North 3,2 1014,1 90 - 11
05:04 10,6 9,0 1,4 North 3,2 1014,1 90 - 11
05:09 10,4 8,8 1,4 North 3,2 1014,1 90 - 12
05:14 10,4 8,8   Calm 3,2 1014,1 90 - 14
05:19 10,5 8,9 1,4 North 1,6 1014,1 90 - 16
05:24 10,5 8,9 1,4 North 3,2 1014,1 90 - 19
05:29 10,7 9,3 1,4 North 3,2 1014,1 91 - 23
05:34 10,7 9,1 1,4 North 3,2 1014,1 90 - 28
05:39 10,7 9,1   Calm   1014,1 90 - 35
05:44 10,4 8,8   Calm   1014,1 90 - 42
05:49 10,6 9,0   Calm   1014,1 90 - 51
05:54 10,8 9,2   Calm   1014,1 90 - 58
05:59 11,1 9,5   Calm   1014,1 90 - 70
06:04 11,3 9,6   Calm   1014,1 89 - 79
06:09 11,6 9,8   Calm   1014,1 89 - 90
06:14 11,8 10,0   Calm   1014,1 89 - 100
06:19 12,1 10,3 1,4 North 3,2 1014,1 89 - 111
06:24 12,2 10,4 1,4 North 3,2 1014,1 89 - 121
06:29 12,5 10,7 3,2 North 3,2 1014,1 89 - 132
06:34 12,9 11,0 3,2 North 3,2 1014,1 88 - 144
06:39 13,1 11,0 1,4 North 1,6 1014,1 87 - 153
06:44 13,4 11,1   Calm   1014,1 86 - 163
06:49 13,7 11,2   Calm   1014,1 85 - 176
06:54 14,0 11,3   Calm 1,6 1014,1 84 - 188
06:59 14,4 11,7   Calm   1014,1 84 - 197
07:04 14,9 11,9   Calm   1014,1 82 - 207
07:09 15,4 12,2   Calm   1014,1 81 - 223
07:14 15,9 12,3   Calm 1,6 1014,1 79 - 237
07:19 16,2 12,6   Calm 1,6 1014,1 79 - 250
07:24 16,7 13,0 1,4 NNW 3,2 1014,1 79 - 260
07:29 17,1 12,8 3,2 NW 3,2 1014,1 76 - 274
07:34 17,2 12,3 3,2 WNW 4,8 1014,1 73 - 287
07:39 17,4 12,3   Calm 3,2 1013,8 72 - 297
07:44 17,3 11,6 1,4 North 3,2 1013,8 69 - 309
07:49 17,6 11,8 1,4 NNW 1,6 1014,1 69 - 322
07:54 18,0 12,4 1,4 NW 3,2 1013,8 70 - 334
07:59 18,2 12,2 1,4 North 3,2 1014,1 68 - 345
08:04 18,3 12,3   Calm 3,2 1014,1 68 - 359
08:09 18,3 12,3   Calm 1,6 1014,1 68 - 369
08:14 18,6 12,6 1,4 North 3,2 1013,8 68 - 381
08:19 18,7 12,2   Calm 1,6 1014,1 66 - 394
08:24 19,2 12,2 1,4 North 1,6 1014,1 64 - 406
08:29 19,1 11,6 1,4 North 3,2 1014,1 62 - 418
08:34 19,1 10,9 3,2 North 4,8 1014,1 59 - 427
08:39 19,2 10,7   Calm 4,8 1014,1 58 - 439
08:44 19,4 10,9 3,2 South 3,2 1014,1 58 - 450
08:49 19,5 10,2 1,4 South 3,2 1014,1 55 - 464
08:54 19,7 11,2 1,4 South 4,8 1014,1 58 - 473
08:59 19,9 11,1 1,4 South 6,4 1014,1 57 - 485
09:04 19,9 10,6 4,7 South 6,4 1014,1 55 - 497
09:09 20,3 13,0 1,4 South 3,2 1014,1 63 - 506
09:14 20,4 13,1   Calm 3,2 1014,1 63 - 517
09:19 20,3 13,0 4,7 South 4,8 1014,1 63 - 529
09:24 20,4 11,1 3,2 South 6,4 1014,1 55 - 540
09:29 20,5 11,1 3,2 South 4,8 1014,1 55 - 552
09:34 20,8 12,2 3,2 South 6,4 1014,1 58 - 561
09:39 20,9 11,5 3,2 South 8,0 1014,1 55 - 568
09:44 20,8 12,5 1,4 South 3,2 1014,1 59 - 578
09:49 21,2 13,6 1,4 South 6,4 1014,1 62 - 587
09:54 21,4 13,8 3,2 NE 8,0 1014,1 62 - 598
09:59 21,2 12,9 4,7 NE 6,4 1014,1 59 - 605
10:04 21,3 13,2 7,9 NE 8,0 1014,1 60 - 619
10:09 21,5 13,7 4,7 NE 14,5 1014,1 61 - 628
10:14 21,6 13,8 6,4 NE 11,3 1014,1 61 - 629
10:19 21,6 13,2 3,2 NE 9,7 1014,1 59 - 638
10:24 21,4 12,8   Calm 9,7 1014,1 58 - 647
10:29 21,3 13,7 3,2 NE 6,4 1014,4 62 - 652
10:34 21,5 12,9 7,9 NE 16,1 1014,1 58 - 666
10:39 21,7 13,8 9,7 NE 14,5 1014,1 61 - 675
10:44 21,9 13,5 6,4 NE 8,0 1014,1 59 - 680
10:49 22,1 13,7 1,4 NE 14,5 1014,1 59 - 689
10:54 21,9 13,3 7,9 NE 9,7 1014,1 58 - 696
10:59 21,9 13,8   Calm 14,5 1014,1 60 - 701
11:04 22,1 13,4 4,7 NE 9,7 1014,1 58 - 712
11:09 22,0 13,6 14,3 NE 17,7 1014,1 59 - 719
11:14 22,2 14,1 1,4 SE 9,7 1014,1 60 - 724
11:19 22,3 14,2 7,9 ENE 8,0 1014,1 60 - 729
11:24 22,6 14,4 14,3 NE 17,7 1014,4 60 - 738
11:29 22,6 14,7 6,4 NE 14,5 1014,4 61 - 751
11:34 22,7 13,7 1,4 NE 9,7 1014,1 57 - 747
11:39 22,7 14,3 9,7 NE 14,5 1014,1 59 - 758
11:44 22,9 16,2 3,2 NE 14,5 1014,4 66 - 758
11:49 23,0 15,1 11,1 ESE 14,5 1014,1 61 - 761
11:54 23,1 14,9 6,4 SSE 14,5 1014,1 60 - 763
11:59 22,9 14,5 1,4 ESE 6,4 1014,1 59 - 759
12:04 23,3 14,8 9,7 East 17,7 1014,1 59 - 765
12:09 23,3 14,8 11,1 ENE 14,5 1014,1 59 - 768
12:14 23,2 15,0 7,9 ENE 19,3 1014,1 60 - 770
12:19 23,6 15,6 7,9 SE 14,5 1014,1 61 - 782
12:24 23,6 14,6 4,7 SE 12,9 1014,1 57 - 780
12:29 23,7 14,4 6,4 SE 14,5 1014,1 56 - 786
12:34 23,6 14,0 11,1 SE 11,3 1014,1 55 - 784
12:39 23,4 14,1 4,7 East 8,0 1014,1 56 - 782
12:44 23,8 13,9 4,7 SSE 16,1 1014,1 54 - 788
12:49 24,2 15,4 6,4 ESE 11,3 1014,1 58 - 791
12:54 23,9 13,4 3,2 East 11,3 1014,1 52 - 788
12:59 23,7 13,6 6,4 ENE 14,5 1014,1 53 - 782
13:04 23,7 14,4 3,2 SE 19,3 1014,1 56 - 793
13:09 23,8 13,9 4,7 East 14,5 1014,1 54 - 803
13:14 24,1 14,2 3,2 East 16,1 1014,1 54 - 816
13:19 23,9 13,1 3,2 SE 9,7 1013,8 51 - 443
13:24 23,4 13,3 11,1 ESE 11,3 1013,8 53 - 258
13:29 22,7 13,7 3,2 East 12,9 1013,8 57 - 130
13:34 23,2 14,2 4,7 ESE 14,5 1013,8 57 - 840
13:39 23,4 14,4 4,7 SSE 6,4 1014,1 57 - 160
13:44 23,0 14,6 6,4 ESE 14,5 1013,8 59 - 218
13:49 24,1 15,0 3,2 SE 14,5 1013,8 57 - 236
13:54 23,1 13,8 1,4 ESE 6,4 1014,1 56 - 206
13:59 23,6 13,7 6,4 SSE 14,5 1013,8 54 - 171
14:04 23,5 14,5 3,2 SE 11,3 1013,8 57 - 805
14:09 23,8 13,9 16,3 SE 22,5 1013,8 54 - 812
14:14 24,0 13,8 19,5 SE 19,3 1013,8 53 - 802
14:19 23,7 14,1 14,3 SSE 17,7 1013,8 55 - 814
14:24 23,8 12,8 4,7 West 6,4 1013,8 50 - 784
14:29 23,9 13,1 9,7 South 16,1 1013,8 51 - 747
14:34 24,4 12,4 9,7 SW 20,9 1013,8 47 - 749
14:39 24,1 13,0 3,2 SSE 19,3 1013,8 50 - 759
14:44 24,4 14,2 1,4 NE 14,5 1013,8 53 - 729
14:49 24,4 13,3 4,7 NE 19,3 1013,8 50 - 742
14:54 24,7 13,9 6,4 ESE 25,7 1013,8 51 - 721
14:59 24,8 14,0 7,9 SE 17,7 1013,8 51 - 712
15:04 24,8 14,0 4,7 SE 14,5 1013,8 51 - 710
15:09 24,6 13,8   Calm 11,3 1013,8 51 - 701
15:14 24,1 12,7 4,7 SE 19,3 1013,8 49 - 698
15:19 23,9 12,5 6,4 ESE 24,1 1013,8 49 - 694
15:24 23,5 14,2 9,7 South 17,7 1013,8 56 - 671
15:29 23,7 12,4 3,2 ESE 20,9 1013,8 49 - 691
15:34 23,6 12,6 17,7 ESE 25,7 1013,8 50 - 645
15:39 23,8 13,1 19,5 SSE 20,9 1013,4 51 - 643
15:44 23,9 12,8 4,7 SE 17,7 1013,4 50 - 638
15:49 24,3 13,5 24,1 SE 24,1 1013,4 51 - 635
15:54 24,0 12,9 6,4 SSE 19,3 1013,4 50 - 538
15:59 24,4 13,6 14,3 SE 20,9 1013,4 51 - 582
16:04 24,6 14,1 3,2 ESE 14,5 1013,4 52 - 580
16:09 24,2 12,5 9,7 SSE 16,1 1013,4 48 - 568
16:14 24,0 12,3 13,0 SSE 17,7 1013,4 48 - 594
16:19 24,6 14,1 3,2 ESE 19,3 1013,4 52 - 531
16:24 24,1 11,8 4,7 SE 22,5 1013,4 46 - 473
16:29 23,8 12,1 9,7 ESE 11,3 1013,4 48 - 462
16:34 23,7 11,7 6,4 East 19,3 1013,4 47 - 487
16:39 23,4 11,4 11,1 ESE 19,3 1013,4 47 - 489
16:44 23,5 11,9 3,2 SE 14,5 1013,4 48 - 497
16:49 23,6 12,9 6,4 SSE 11,3 1013,4 51 - 519
16:54 23,7 11,7 4,7 SSE 17,7 1013,1 47 - 510
16:59 23,9 12,2 4,7 SE 14,5 1013,1 48 - 487
17:04 24,3 12,9 3,2 ENE 14,5 1013,1 49 - 476
17:09 24,5 13,4 6,4 SE 16,1 1013,1 50 - 469
17:14 24,1 12,7 3,2 South 11,3 1013,1 49 - 457
17:19 23,8 11,8 4,7 SSW 14,5 1013,1 47 - 445
17:24 23,8 12,4 11,1 SSW 14,5 1013,1 49 - 431
17:29 24,0 12,9 7,9 South 19,3 1013,1 50 - 418
17:34 23,9 12,5 14,3 SE 20,9 1013,1 49 - 404
17:39 23,8 12,8 13,0 SSE 14,5 1013,1 50 - 397
17:44 24,0 12,6 7,9 SSE 12,9 1013,1 49 - 378
17:49 23,8 13,1 3,2 SE 17,7 1013,1 51 - 367
17:54 23,8 12,4 6,4 South 9,7 1013,1 49 - 357
17:59 23,9 12,8 7,9 SSE 11,3 1013,1 50 - 320
18:04 23,8 13,1 6,4 South 9,7 1013,1 51 - 327
18:09 23,8 12,8 3,2 South 9,7 1013,1 50 - 329
Daily Summary for Thursday 18 July 2019
Time Temp. ( °C ) Dew pt. ( °C ) Wind ( km/h ) from Gust ( km/h ) Pressure ( hPa ) Humid.( % ) Rainrate ( cm ) Solar ( W/m2 )
High24,8 16,2 24,1 SE ( 177/862 ) 25,7 1014,8 91 - 840
Average18,2 11,9 4,0 North #56/218 8,3 1014,0 69 - 474 #163/218
Low10,4 8,8 -   0,0 1013,1 46 -  
Daily Tabular details for Thursday 18 July 2019
Time Temp. ( °C ) Dew pt. ( °C ) Wind ( km/h ) from Gust ( km/h ) Pressure ( hPa ) Humid.( % ) Rainrate ( cm ) Solar ( W/m2 )
00:04 13,5 11,0 1,4 NNW 4,8 1014,8 85 - -
00:09 13,4 10,9 1,4 NNW 3,2 1014,8 85 - -
00:14 13,3 10,8 3,2 NNW 4,8 1014,8 85 - -
00:19 13,2 10,9 3,2 NNW 3,2 1014,8 86 - -
00:24 13,1 10,8 1,4 North 4,8 1014,8 86 - -
00:29 13,1 11,0 1,4 North 4,8 1014,8 87 - -
00:34 13,0 10,9 3,2 North 3,2 1014,8 87 - -
00:39 13,0 10,9 4,7 North 4,8 1014,8 87 - -
00:44 13,0 10,9 3,2 North 4,8 1014,8 87 - -
00:49 12,9 10,8 3,2 North 4,8 1014,8 87 - -
00:54 12,9 10,8 6,4 North 6,4 1014,8 87 - -
00:59 12,9 11,0 4,7 North 6,4 1014,8 88 - -
01:04 12,9 11,0 3,2 North 4,8 1014,8 88 - -
01:09 12,9 11,0 1,4 North 4,8 1014,8 88 - -
01:14 12,8 10,9 3,2 North 4,8 1014,8 88 - -
01:19 12,8 10,9 3,2 NNW 4,8 1014,4 88 - -
01:24 12,7 10,8 1,4 North 3,2 1014,8 88 - -
01:29 12,6 10,8 1,4 North 3,2 1014,8 89 - -
01:34 12,6 10,8 1,4 NW 1,6 1014,8 89 - -
01:39 12,5 10,7 1,4 North 3,2 1014,8 89 - -
01:44 12,4 10,6 3,2 NW 3,2 1014,8 89 - -
01:49 12,3 10,5 1,4 NW 3,2 1014,4 89 - -
01:54 12,2 10,4   Calm   1014,4 89 - -
01:59 12,3 10,7   Calm   1014,4 90 - -
02:04 12,1 10,3   Calm   1014,4 89 - -
02:09 12,1 10,5   Calm 1,6 1014,4 90 - -
02:14 12,1 10,5   Calm   1014,4 90 - -
02:19 11,8 10,0   Calm   1014,4 89 - -
02:24 11,7 9,9   Calm   1014,4 89 - -
02:29 11,7 9,9   Calm   1014,4 89 - -
02:34 11,7 9,9 1,4 North 3,2 1014,4 89 - -
02:39 11,6 9,8 1,4 North 3,2 1014,4 89 - -
02:44 11,6 10,0 1,4 North 1,6 1014,4 90 - -
02:49 11,7 10,1 3,2 North 3,2 1014,4 90 - -
02:54 11,5 9,7 1,4 North 3,2 1014,4 89 - -
02:59 11,4 9,7   Calm 3,2 1014,4 89 - -
03:04 11,4 9,7 1,4 North 4,8 1014,4 89 - -
03:09 11,3 9,6 3,2 North 3,2 1014,4 89 - -
03:14 11,3 9,6 1,4 North 3,2 1014,4 89 - -
03:19 11,2 9,5 3,2 North 4,8 1014,1 89 - -
03:24 11,2 9,5 1,4 North 4,8 1014,1 89 - -
03:29 11,1 9,4 3,2 North 3,2 1014,1 89 - -
03:34 11,0 9,3 1,4 North 1,6 1014,1 89 - -
03:39 10,9 9,3   Calm   1014,1 90 - -
03:44 10,8 9,2   Calm   1014,1 90 - -
03:49 10,8 9,2   Calm 1,6 1014,1 90 - -
03:54 10,7 9,1 1,4 North 1,6 1014,1 90 - -
03:59 10,7 9,1 3,2 North 3,2 1014,1 90 - -
04:04 10,6 9,0 1,4 North 1,6 1014,1 90 - -
04:09 10,6 9,0 1,4 North 3,2 1014,1 90 - -
04:14 10,5 8,8 1,4 North 3,2 1014,1 89 - -
04:19 10,6 8,9 1,4 North 3,2 1014,1 89 - -
04:24 10,6 8,9   Calm 1,6 1014,1 89 - -
04:29 10,7 9,1 1,4 North 3,2 1014,1 90 - -
04:34 10,7 9,0 3,2 North 4,8 1014,1 89 - -
04:39 10,7 9,1 1,4 North 4,8 1014,1 90 - 5
04:44 10,7 9,1 1,4 North 3,2 1014,1 90 - 5
04:49 10,6 9,0 1,4 North 3,2 1014,1 90 - 7
04:54 10,6 9,0 1,4 North 3,2 1014,1 90 - 9
04:59 10,6 9,0 1,4 North 3,2 1014,1 90 - 11
05:04 10,6 9,0 1,4 North 3,2 1014,1 90 - 11
05:09 10,4 8,8 1,4 North 3,2 1014,1 90 - 12
05:14 10,4 8,8   Calm 3,2 1014,1 90 - 14
05:19 10,5 8,9 1,4 North 1,6 1014,1 90 - 16
05:24 10,5 8,9 1,4 North 3,2 1014,1 90 - 19
05:29 10,7 9,3 1,4 North 3,2 1014,1 91 - 23
05:34 10,7 9,1 1,4 North 3,2 1014,1 90 - 28
05:39 10,7 9,1   Calm   1014,1 90 - 35
05:44 10,4 8,8   Calm   1014,1 90 - 42
05:49 10,6 9,0   Calm   1014,1 90 - 51
05:54 10,8 9,2   Calm   1014,1 90 - 58
05:59 11,1 9,5   Calm   1014,1 90 - 70
06:04 11,3 9,6   Calm   1014,1 89 - 79
06:09 11,6 9,8   Calm   1014,1 89 - 90
06:14 11,8 10,0   Calm   1014,1 89 - 100
06:19 12,1 10,3 1,4 North 3,2 1014,1 89 - 111
06:24 12,2 10,4 1,4 North 3,2 1014,1 89 - 121
06:29 12,5 10,7 3,2 North 3,2 1014,1 89 - 132
06:34 12,9 11,0 3,2 North 3,2 1014,1 88 - 144
06:39 13,1 11,0 1,4 North 1,6 1014,1 87 - 153
06:44 13,4 11,1   Calm   1014,1 86 - 163
06:49 13,7 11,2   Calm   1014,1 85 - 176
06:54 14,0 11,3   Calm 1,6 1014,1 84 - 188
06:59 14,4 11,7   Calm   1014,1 84 - 197
07:04 14,9 11,9   Calm   1014,1 82 - 207
07:09 15,4 12,2   Calm   1014,1 81 - 223
07:14 15,9 12,3   Calm 1,6 1014,1 79 - 237
07:19 16,2 12,6   Calm 1,6 1014,1 79 - 250
07:24 16,7 13,0 1,4 NNW 3,2 1014,1 79 - 260
07:29 17,1 12,8 3,2 NW 3,2 1014,1 76 - 274
07:34 17,2 12,3 3,2 WNW 4,8 1014,1 73 - 287
07:39 17,4 12,3   Calm 3,2 1013,8 72 - 297
07:44 17,3 11,6 1,4 North 3,2 1013,8 69 - 309
07:49 17,6 11,8 1,4 NNW 1,6 1014,1 69 - 322
07:54 18,0 12,4 1,4 NW 3,2 1013,8 70 - 334
07:59 18,2 12,2 1,4 North 3,2 1014,1 68 - 345
08:04 18,3 12,3   Calm 3,2 1014,1 68 - 359
08:09 18,3 12,3   Calm 1,6 1014,1 68 - 369
08:14 18,6 12,6 1,4 North 3,2 1013,8 68 - 381
08:19 18,7 12,2   Calm 1,6 1014,1 66 - 394
08:24 19,2 12,2 1,4 North 1,6 1014,1 64 - 406
08:29 19,1 11,6 1,4 North 3,2 1014,1 62 - 418
08:34 19,1 10,9 3,2 North 4,8 1014,1 59 - 427
08:39 19,2 10,7   Calm 4,8 1014,1 58 - 439
08:44 19,4 10,9 3,2 South 3,2 1014,1 58 - 450
08:49 19,5 10,2 1,4 South 3,2 1014,1 55 - 464
08:54 19,7 11,2 1,4 South 4,8 1014,1 58 - 473
08:59 19,9 11,1 1,4 South 6,4 1014,1 57 - 485
09:04 19,9 10,6 4,7 South 6,4 1014,1 55 - 497
09:09 20,3 13,0 1,4 South 3,2 1014,1 63 - 506
09:14 20,4 13,1   Calm 3,2 1014,1 63 - 517
09:19 20,3 13,0 4,7 South 4,8 1014,1 63 - 529
09:24 20,4 11,1 3,2 South 6,4 1014,1 55 - 540
09:29 20,5 11,1 3,2 South 4,8 1014,1 55 - 552
09:34 20,8 12,2 3,2 South 6,4 1014,1 58 - 561
09:39 20,9 11,5 3,2 South 8,0 1014,1 55 - 568
09:44 20,8 12,5 1,4 South 3,2 1014,1 59 - 578
09:49 21,2 13,6 1,4 South 6,4 1014,1 62 - 587
09:54 21,4 13,8 3,2 NE 8,0 1014,1 62 - 598
09:59 21,2 12,9 4,7 NE 6,4 1014,1 59 - 605
10:04 21,3 13,2 7,9 NE 8,0 1014,1 60 - 619
10:09 21,5 13,7 4,7 NE 14,5 1014,1 61 - 628
10:14 21,6 13,8 6,4 NE 11,3 1014,1 61 - 629
10:19 21,6 13,2 3,2 NE 9,7 1014,1 59 - 638
10:24 21,4 12,8   Calm 9,7 1014,1 58 - 647
10:29 21,3 13,7 3,2 NE 6,4 1014,4 62 - 652
10:34 21,5 12,9 7,9 NE 16,1 1014,1 58 - 666
10:39 21,7 13,8 9,7 NE 14,5 1014,1 61 - 675
10:44 21,9 13,5 6,4 NE 8,0 1014,1 59 - 680
10:49 22,1 13,7 1,4 NE 14,5 1014,1 59 - 689
10:54 21,9 13,3 7,9 NE 9,7 1014,1 58 - 696
10:59 21,9 13,8   Calm 14,5 1014,1 60 - 701
11:04 22,1 13,4 4,7 NE 9,7 1014,1 58 - 712
11:09 22,0 13,6 14,3 NE 17,7 1014,1 59 - 719
11:14 22,2 14,1 1,4 SE 9,7 1014,1 60 - 724
11:19 22,3 14,2 7,9 ENE 8,0 1014,1 60 - 729
11:24 22,6 14,4 14,3 NE 17,7 1014,4 60 - 738
11:29 22,6 14,7 6,4 NE 14,5 1014,4 61 - 751
11:34 22,7 13,7 1,4 NE 9,7 1014,1 57 - 747
11:39 22,7 14,3 9,7 NE 14,5 1014,1 59 - 758
11:44 22,9 16,2 3,2 NE 14,5 1014,4 66 - 758
11:49 23,0 15,1 11,1 ESE 14,5 1014,1 61 - 761
11:54 23,1 14,9 6,4 SSE 14,5 1014,1 60 - 763
11:59 22,9 14,5 1,4 ESE 6,4 1014,1 59 - 759
12:04 23,3 14,8 9,7 East 17,7 1014,1 59 - 765
12:09 23,3 14,8 11,1 ENE 14,5 1014,1 59 - 768
12:14 23,2 15,0 7,9 ENE 19,3 1014,1 60 - 770
12:19 23,6 15,6 7,9 SE 14,5 1014,1 61 - 782
12:24 23,6 14,6 4,7 SE 12,9 1014,1 57 - 780
12:29 23,7 14,4 6,4 SE 14,5 1014,1 56 - 786
12:34 23,6 14,0 11,1 SE 11,3 1014,1 55 - 784
12:39 23,4 14,1 4,7 East 8,0 1014,1 56 - 782
12:44 23,8 13,9 4,7 SSE 16,1 1014,1 54 - 788
12:49 24,2 15,4 6,4 ESE 11,3 1014,1 58 - 791
12:54 23,9 13,4 3,2 East 11,3 1014,1 52 - 788
12:59 23,7 13,6 6,4 ENE 14,5 1014,1 53 - 782
13:04 23,7 14,4 3,2 SE 19,3 1014,1 56 - 793
13:09 23,8 13,9 4,7 East 14,5 1014,1 54 - 803
13:14 24,1 14,2 3,2 East 16,1 1014,1 54 - 816
13:19 23,9 13,1 3,2 SE 9,7 1013,8 51 - 443
13:24 23,4 13,3 11,1 ESE 11,3 1013,8 53 - 258
13:29 22,7 13,7 3,2 East 12,9 1013,8 57 - 130
13:34 23,2 14,2 4,7 ESE 14,5 1013,8 57 - 840
13:39 23,4 14,4 4,7 SSE 6,4 1014,1 57 - 160
13:44 23,0 14,6 6,4 ESE 14,5 1013,8 59 - 218
13:49 24,1 15,0 3,2 SE 14,5 1013,8 57 - 236
13:54 23,1 13,8 1,4 ESE 6,4 1014,1 56 - 206
13:59 23,6 13,7 6,4 SSE 14,5 1013,8 54 - 171
14:04 23,5 14,5 3,2 SE 11,3 1013,8 57 - 805
14:09 23,8 13,9 16,3 SE 22,5 1013,8 54 - 812
14:14 24,0 13,8 19,5 SE 19,3 1013,8 53 - 802
14:19 23,7 14,1 14,3 SSE 17,7 1013,8 55 - 814
14:24 23,8 12,8 4,7 West 6,4 1013,8 50 - 784
14:29 23,9 13,1 9,7 South 16,1 1013,8 51 - 747
14:34 24,4 12,4 9,7 SW 20,9 1013,8 47 - 749
14:39 24,1 13,0 3,2 SSE 19,3 1013,8 50 - 759
14:44 24,4 14,2 1,4 NE 14,5 1013,8 53 - 729
14:49 24,4 13,3 4,7 NE 19,3 1013,8 50 - 742
14:54 24,7 13,9 6,4 ESE 25,7 1013,8 51 - 721
14:59 24,8 14,0 7,9 SE 17,7 1013,8 51 - 712
15:04 24,8 14,0 4,7 SE 14,5 1013,8 51 - 710
15:09 24,6 13,8   Calm 11,3 1013,8 51 - 701
15:14 24,1 12,7 4,7 SE 19,3 1013,8 49 - 698
15:19 23,9 12,5 6,4 ESE 24,1 1013,8 49 - 694
15:24 23,5 14,2 9,7 South 17,7 1013,8 56 - 671
15:29 23,7 12,4 3,2 ESE 20,9 1013,8 49 - 691
15:34 23,6 12,6 17,7 ESE 25,7 1013,8 50 - 645
15:39 23,8 13,1 19,5 SSE 20,9 1013,4 51 - 643
15:44 23,9 12,8 4,7 SE 17,7 1013,4 50 - 638
15:49 24,3 13,5 24,1 SE 24,1 1013,4 51 - 635
15:54 24,0 12,9 6,4 SSE 19,3 1013,4 50 - 538
15:59 24,4 13,6 14,3 SE 20,9 1013,4 51 - 582
16:04 24,6 14,1 3,2 ESE 14,5 1013,4 52 - 580
16:09 24,2 12,5 9,7 SSE 16,1 1013,4 48 - 568
16:14 24,0 12,3 13,0 SSE 17,7 1013,4 48 - 594
16:19 24,6 14,1 3,2 ESE 19,3 1013,4 52 - 531
16:24 24,1 11,8 4,7 SE 22,5 1013,4 46 - 473
16:29 23,8 12,1 9,7 ESE 11,3 1013,4 48 - 462
16:34 23,7 11,7 6,4 East 19,3 1013,4 47 - 487
16:39 23,4 11,4 11,1 ESE 19,3 1013,4 47 - 489
16:44 23,5 11,9 3,2 SE 14,5 1013,4 48 - 497
16:49 23,6 12,9 6,4 SSE 11,3 1013,4 51 - 519
16:54 23,7 11,7 4,7 SSE 17,7 1013,1 47 - 510
16:59 23,9 12,2 4,7 SE 14,5 1013,1 48 - 487
17:04 24,3 12,9 3,2 ENE 14,5 1013,1 49 - 476
17:09 24,5 13,4 6,4 SE 16,1 1013,1 50 - 469
17:14 24,1 12,7 3,2 South 11,3 1013,1 49 - 457
17:19 23,8 11,8 4,7 SSW 14,5 1013,1 47 - 445
17:24 23,8 12,4 11,1 SSW 14,5 1013,1 49 - 431
17:29 24,0 12,9 7,9 South 19,3 1013,1 50 - 418
17:34 23,9 12,5 14,3 SE 20,9 1013,1 49 - 404
17:39 23,8 12,8 13,0 SSE 14,5 1013,1 50 - 397
17:44 24,0 12,6 7,9 SSE 12,9 1013,1 49 - 378
17:49 23,8 13,1 3,2 SE 17,7 1013,1 51 - 367
17:54 23,8 12,4 6,4 South 9,7 1013,1 49 - 357
17:59 23,9 12,8 7,9 SSE 11,3 1013,1 50 - 320
18:04 23,8 13,1 6,4 South 9,7 1013,1 51 - 327
18:09 23,8 12,8 3,2 South 9,7 1013,1 50 - 329

Download your copy of this data-set  here

Our weather-data as stored at Weather Underground. Script developed by Jim McMurry. Adapted for the template by Leuven-Template.eu

You find our weather info also at:

European Weather Network

Weather Underground

European Weather Network

Equipment we use:

Weather-station
Davis VP2

Weather-program
Weather Display

Davis VP2

Weather Display



Hej. Vi har købt ny vejrstation, og er ved at bygge en helt ny vejrside.
Kom snart tilbage og følg udviklingen.
Du kan også komme med kommentarer eller evt. ønsker via "Kontakt" i bunden.